Time,TemperatureF,DewpointF,PressureIn,WindDirection,WindDirectionDegrees,WindSpeedMPH,WindSpeedGustMPH,Humidity,HourlyPrecipIn,Conditions,Clouds,dailyrainin,SoftwareType,DateUTC
2013-01-29 00:02:00,38.5,38.0,29.80,ENE,58,0.0,1.0,98,0.00,,,0.00,WeatherCatV1.01B143,2013-01-29 06:02:00,
2013-01-29 00:07:00,38.6,38.1,29.80,West,277,0.0,0.0,98,0.00,,,0.00,WeatherCatV1.01B143,2013-01-29 06:07:00,
2013-01-29 00:12:00,38.8,38.3,29.80,ENE,64,1.0,1.0,98,0.00,,,0.00,WeatherCatV1.01B143,2013-01-29 06:12:00,
2013-01-29 00:17:00,38.8,38.3,29.79,South,185,0.0,0.0,98,0.00,,,0.00,WeatherCatV1.01B143,2013-01-29 06:17:00,
2013-01-29 00:22:00,38.8,38.3,29.79,NW,308,0.0,0.0,98,0.00,,,0.00,WeatherCatV1.01B143,2013-01-29 06:22:00,
2013-01-29 00:27:00,38.7,38.2,29.78,South,185,0.0,1.0,98,0.00,,,0.00,WeatherCatV1.01B143,2013-01-29 06:27:00,
2013-01-29 00:32:00,38.8,38.3,29.78,SSE,160,0.0,1.0,98,0.00,,,0.00,WeatherCatV1.01B143,2013-01-29 06:32:00,
2013-01-29 00:37:00,38.7,38.2,29.77,WSW,238,0.0,1.0,98,0.00,,,0.00,WeatherCatV1.01B143,2013-01-29 06:37:00,
2013-01-29 00:42:00,38.9,38.4,29.76,SSW,200,0.0,1.0,98,0.00,,,0.00,WeatherCatV1.01B143,2013-01-29 06:42:00,
2013-01-29 00:47:00,39.0,38.5,29.76,WSW,248,1.0,1.0,98,0.00,,,0.00,WeatherCatV1.01B143,2013-01-29 06:47:00,
2013-01-29 00:52:00,39.1,38.6,29.76,South,172,0.0,1.0,98,0.00,,,0.00,WeatherCatV1.01B143,2013-01-29 06:52:00,
2013-01-29 00:57:00,39.2,38.7,29.75,South,174,0.0,1.0,98,0.00,,,0.00,WeatherCatV1.01B143,2013-01-29 06:57:00,
2013-01-29 01:02:00,39.3,38.8,29.75,North,358,0.0,1.0,98,0.00,,,0.00,WeatherCatV1.01B143,2013-01-29 07:02:00,
2013-01-29 01:07:00,39.5,39.0,29.75,SW,221,1.0,1.0,98,0.00,,,0.00,WeatherCatV1.01B143,2013-01-29 07:07:00,
2013-01-29 01:12:00,39.9,39.4,29.74,SSW,201,1.0,1.0,98,0.00,,,0.00,WeatherCatV1.01B143,2013-01-29 07:12:00,
2013-01-29 01:17:00,40.4,39.9,29.75,South,179,0.0,1.0,98,0.00,,,0.00,WeatherCatV1.01B143,2013-01-29 07:17:00,
2013-01-29 01:22:00,40.9,40.4,29.74,SSW,200,0.0,1.0,98,0.00,,,0.01,WeatherCatV1.01B143,2013-01-29 07:22:00,
2013-01-29 01:27:00,41.6,41.1,29.74,SW,226,0.0,2.0,98,0.00,,,0.01,WeatherCatV1.01B143,2013-01-29 07:27:00,
2013-01-29 01:32:00,42.1,41.8,29.74,SSE,156,0.0,3.0,99,0.00,,,0.01,WeatherCatV1.01B143,2013-01-29 07:32:00,
2013-01-29 01:37:00,42.5,42.2,29.73,North,5,0.0,2.0,99,0.00,,,0.01,WeatherCatV1.01B143,2013-01-29 07:37:00,
2013-01-29 01:42:00,43.3,43.0,29.72,SSE,166,0.0,4.0,99,0.00,,,0.01,WeatherCatV1.01B143,2013-01-29 07:42:00,
2013-01-29 01:47:00,43.9,43.6,29.72,SSE,161,5.0,5.0,99,0.00,,,0.01,WeatherCatV1.01B143,2013-01-29 07:47:00,
2013-01-29 01:52:00,44.2,43.9,29.71,SSW,196,4.0,5.0,99,0.00,,,0.01,WeatherCatV1.01B143,2013-01-29 07:52:00,
2013-01-29 01:57:00,44.5,44.2,29.71,South,188,3.0,3.0,99,0.00,,,0.01,WeatherCatV1.01B143,2013-01-29 07:57:00,
2013-01-29 02:02:00,44.8,44.5,29.71,South,180,1.0,6.0,99,0.00,,,0.01,WeatherCatV1.01B143,2013-01-29 08:02:00,
2013-01-29 02:07:00,45.1,44.8,29.70,SW,236,5.0,6.0,99,0.00,,,0.01,WeatherCatV1.01B143,2013-01-29 08:07:00,
2013-01-29 02:12:00,45.5,45.2,29.71,South,188,3.0,7.0,99,2.81,,,0.05,WeatherCatV1.01B143,2013-01-29 08:12:00,
2013-01-29 02:17:00,46.1,45.8,29.69,SW,235,5.0,8.0,99,0.41,,,0.13,WeatherCatV1.01B143,2013-01-29 08:17:00,
2013-01-29 02:22:00,46.8,46.5,29.69,SW,219,4.0,9.0,99,0.11,,,0.13,WeatherCatV1.01B143,2013-01-29 08:22:00,
2013-01-29 02:27:00,47.0,46.7,29.69,SSW,197,2.0,6.0,99,0.06,,,0.13,WeatherCatV1.01B143,2013-01-29 08:27:00,
2013-01-29 02:32:00,47.0,46.7,29.70,SW,217,3.0,6.0,99,0.04,,,0.13,WeatherCatV1.01B143,2013-01-29 08:32:00,
2013-01-29 02:37:00,47.2,46.9,29.69,South,191,4.0,10.0,99,0.00,,,0.13,WeatherCatV1.01B143,2013-01-29 08:37:00,
2013-01-29 02:42:00,47.3,47.0,29.69,SSW,203,3.0,7.0,99,0.00,,,0.13,WeatherCatV1.01B143,2013-01-29 08:42:00,
2013-01-29 02:47:00,47.4,47.1,29.69,SSW,204,4.0,9.0,99,0.00,,,0.13,WeatherCatV1.01B143,2013-01-29 08:47:00,
2013-01-29 02:52:00,47.5,47.2,29.69,SSW,208,5.0,5.0,99,0.00,,,0.13,WeatherCatV1.01B143,2013-01-29 08:52:00,
2013-01-29 02:57:00,47.7,47.4,29.68,SSW,203,4.0,8.0,99,0.00,,,0.13,WeatherCatV1.01B143,2013-01-29 08:57:00,
2013-01-29 03:02:00,47.8,47.5,29.68,SSW,197,5.0,7.0,99,0.00,,,0.13,WeatherCatV1.01B143,2013-01-29 09:02:00,
2013-01-29 03:07:00,48.3,48.0,29.68,South,184,10.0,10.0,99,0.00,,,0.13,WeatherCatV1.01B143,2013-01-29 09:07:00,
2013-01-29 03:12:00,49.3,49.0,29.67,SSW,201,4.0,12.0,99,0.00,,,0.13,WeatherCatV1.01B143,2013-01-29 09:12:00,
2013-01-29 03:17:00,50.7,50.4,29.67,SSE,167,5.0,11.0,99,0.00,,,0.13,WeatherCatV1.01B143,2013-01-29 09:17:00,
2013-01-29 03:22:00,51.7,51.4,29.67,South,186,11.0,12.0,99,0.00,,,0.13,WeatherCatV1.01B143,2013-01-29 09:22:00,
2013-01-29 03:27:00,53.0,52.7,29.67,South,191,7.0,16.0,99,0.00,,,0.13,WeatherCatV1.01B143,2013-01-29 09:27:00,
2013-01-29 03:32:00,53.8,53.5,29.67,SSE,155,15.0,15.0,99,0.00,,,0.13,WeatherCatV1.01B143,2013-01-29 09:32:00,
2013-01-29 03:37:00,54.3,54.0,29.67,SW,219,5.0,15.0,99,0.00,,,0.13,WeatherCatV1.01B143,2013-01-29 09:37:00,
2013-01-29 03:42:00,54.6,54.3,29.67,South,187,5.0,15.0,99,0.00,,,0.13,WeatherCatV1.01B143,2013-01-29 09:42:00,
2013-01-29 03:47:00,54.8,54.5,29.67,WSW,237,7.0,11.0,99,0.00,,,0.13,WeatherCatV1.01B143,2013-01-29 09:47:00,
2013-01-29 03:52:00,55.0,54.7,29.67,SW,224,8.0,9.0,99,0.00,,,0.13,WeatherCatV1.01B143,2013-01-29 09:52:00,
2013-01-29 03:57:00,55.4,55.1,29.67,South,180,10.0,13.0,99,0.00,,,0.13,WeatherCatV1.01B143,2013-01-29 09:57:00,
2013-01-29 04:02:00,55.6,55.3,29.67,SW,216,14.0,16.0,99,0.00,,,0.13,WeatherCatV1.01B143,2013-01-29 10:02:00,
2013-01-29 04:07:00,55.7,55.4,29.67,SSW,202,6.0,15.0,99,0.00,,,0.13,WeatherCatV1.01B143,2013-01-29 10:07:00,
2013-01-29 04:12:00,55.9,55.6,29.66,South,183,9.0,18.0,99,0.00,,,0.13,WeatherCatV1.01B143,2013-01-29 10:12:00,
2013-01-29 04:17:00,56.1,55.8,29.66,SSW,206,4.0,20.0,99,0.00,,,0.13,WeatherCatV1.01B143,2013-01-29 10:17:00,
2013-01-29 04:22:00,56.2,55.9,29.66,SSE,160,6.0,14.0,99,0.00,,,0.13,WeatherCatV1.01B143,2013-01-29 10:22:00,
2013-01-29 04:27:00,56.3,56.0,29.66,South,176,5.0,15.0,99,0.00,,,0.13,WeatherCatV1.01B143,2013-01-29 10:27:00,
2013-01-29 04:32:00,56.4,56.1,29.65,SSW,203,19.0,19.0,99,0.00,,,0.13,WeatherCatV1.01B143,2013-01-29 10:32:00,
2013-01-29 04:37:00,56.5,56.2,29.66,SSW,208,8.0,14.0,99,0.00,,,0.13,WeatherCatV1.01B143,2013-01-29 10:37:00,
2013-01-29 04:42:00,56.7,56.4,29.65,SSE,162,12.0,19.0,99,0.00,,,0.13,WeatherCatV1.01B143,2013-01-29 10:42:00,
2013-01-29 04:47:00,56.7,56.4,29.66,SSE,162,14.0,18.0,99,0.00,,,0.13,WeatherCatV1.01B143,2013-01-29 10:47:00,
2013-01-29 04:52:00,56.8,56.5,29.65,SSW,198,9.0,16.0,99,0.00,,,0.13,WeatherCatV1.01B143,2013-01-29 10:52:00,
2013-01-29 04:57:00,56.8,56.5,29.65,South,191,9.0,12.0,99,0.00,,,0.13,WeatherCatV1.01B143,2013-01-29 10:57:00,
2013-01-29 05:02:00,56.9,56.6,29.65,SSW,195,9.0,13.0,99,0.00,,,0.13,WeatherCatV1.01B143,2013-01-29 11:02:00,
2013-01-29 05:07:00,57.0,56.7,29.65,SSW,198,5.0,15.0,99,0.00,,,0.13,WeatherCatV1.01B143,2013-01-29 11:07:00,
2013-01-29 05:12:00,57.1,56.5,29.65,South,190,5.0,17.0,98,0.00,,,0.13,WeatherCatV1.01B143,2013-01-29 11:12:00,
2013-01-29 05:17:00,57.2,56.6,29.64,South,189,8.0,19.0,98,0.00,,,0.13,WeatherCatV1.01B143,2013-01-29 11:17:00,
2013-01-29 05:22:00,57.3,56.7,29.64,South,190,6.0,16.0,98,0.00,,,0.13,WeatherCatV1.01B143,2013-01-29 11:22:00,
2013-01-29 05:27:00,57.4,56.6,29.64,South,190,10.0,21.0,97,0.00,,,0.13,WeatherCatV1.01B143,2013-01-29 11:27:00,
2013-01-29 05:32:00,57.4,56.6,29.64,SW,225,10.0,13.0,97,0.00,,,0.13,WeatherCatV1.01B143,2013-01-29 11:32:00,
2013-01-29 05:37:00,57.4,56.6,29.64,SW,229,7.0,15.0,97,0.00,,,0.13,WeatherCatV1.01B143,2013-01-29 11:37:00,
2013-01-29 05:42:00,57.4,56.6,29.64,SSE,163,4.0,13.0,97,0.00,,,0.13,WeatherCatV1.01B143,2013-01-29 11:42:00,
2013-01-29 05:47:00,57.4,56.3,29.64,SSW,204,2.0,16.0,96,0.00,,,0.13,WeatherCatV1.01B143,2013-01-29 11:47:00,
2013-01-29 05:52:00,57.3,56.2,29.64,South,173,14.0,14.0,96,0.00,,,0.13,WeatherCatV1.01B143,2013-01-29 11:52:00,
2013-01-29 05:57:00,57.2,56.1,29.64,SSW,195,6.0,14.0,96,0.00,,,0.13,WeatherCatV1.01B143,2013-01-29 11:57:00,
2013-01-29 06:02:00,57.2,56.1,29.64,SW,216,7.0,14.0,96,0.00,,,0.13,WeatherCatV1.01B143,2013-01-29 12:02:00,
2013-01-29 06:07:00,57.1,56.0,29.64,South,176,13.0,16.0,96,0.00,,,0.13,WeatherCatV1.01B143,2013-01-29 12:07:00,
2013-01-29 06:12:00,57.2,56.1,29.63,SW,226,7.0,11.0,96,0.00,,,0.13,WeatherCatV1.01B143,2013-01-29 12:12:00,
2013-01-29 06:17:00,57.2,56.1,29.64,SSE,166,9.0,9.0,96,0.00,,,0.13,WeatherCatV1.01B143,2013-01-29 12:17:00,
2013-01-29 06:22:00,57.3,56.2,29.64,SSW,193,7.0,17.0,96,0.00,,,0.13,WeatherCatV1.01B143,2013-01-29 12:22:00,
2013-01-29 06:27:00,57.4,56.3,29.63,SSW,195,6.0,15.0,96,0.00,,,0.13,WeatherCatV1.01B143,2013-01-29 12:27:00,
2013-01-29 06:32:00,57.5,56.4,29.63,SSW,211,10.0,15.0,96,0.00,,,0.13,WeatherCatV1.01B143,2013-01-29 12:32:00,
2013-01-29 06:37:00,57.5,56.4,29.63,SSW,201,4.0,14.0,96,0.00,,,0.13,WeatherCatV1.01B143,2013-01-29 12:37:00,
2013-01-29 06:42:00,57.5,56.4,29.63,South,176,9.0,13.0,96,0.00,,,0.13,WeatherCatV1.01B143,2013-01-29 12:42:00,
2013-01-29 06:47:00,57.5,56.4,29.63,SSW,203,6.0,17.0,96,0.00,,,0.13,WeatherCatV1.01B143,2013-01-29 12:47:00,
2013-01-29 06:52:00,57.5,56.4,29.63,SSW,208,13.0,16.0,96,0.00,,,0.13,WeatherCatV1.01B143,2013-01-29 12:52:00,
2013-01-29 06:57:00,57.5,56.4,29.63,SW,236,11.0,15.0,96,0.00,,,0.13,WeatherCatV1.01B143,2013-01-29 12:57:00,
2013-01-29 07:02:00,57.6,56.5,29.62,SSW,201,10.0,16.0,96,0.00,,,0.13,WeatherCatV1.01B143,2013-01-29 13:02:00,
2013-01-29 07:07:00,57.5,56.4,29.63,SSW,205,8.0,13.0,96,0.00,,,0.13,WeatherCatV1.01B143,2013-01-29 13:07:00,
2013-01-29 07:12:00,57.5,56.4,29.64,SW,218,6.0,16.0,96,0.00,,,0.13,WeatherCatV1.01B143,2013-01-29 13:12:00,
2013-01-29 07:17:00,57.5,56.4,29.64,SSW,212,11.0,18.0,96,0.00,,,0.13,WeatherCatV1.01B143,2013-01-29 13:17:00,
2013-01-29 07:22:00,57.4,56.3,29.64,SSW,195,3.0,12.0,96,0.00,,,0.13,WeatherCatV1.01B143,2013-01-29 13:22:00,
2013-01-29 07:27:00,57.5,56.4,29.64,SW,217,6.0,17.0,96,0.00,,,0.13,WeatherCatV1.01B143,2013-01-29 13:27:00,
2013-01-29 07:32:00,57.5,56.4,29.64,SSE,156,13.0,18.0,96,0.00,,,0.13,WeatherCatV1.01B143,2013-01-29 13:32:00,
2013-01-29 07:37:00,57.6,56.5,29.65,SW,218,8.0,15.0,96,0.00,,,0.13,WeatherCatV1.01B143,2013-01-29 13:37:00,
2013-01-29 07:42:00,57.6,56.5,29.64,SW,217,5.0,11.0,96,0.00,,,0.13,WeatherCatV1.01B143,2013-01-29 13:42:00,
2013-01-29 07:47:00,57.5,56.4,29.65,South,170,7.0,8.0,96,0.00,,,0.13,WeatherCatV1.01B143,2013-01-29 13:47:00,
2013-01-29 07:52:00,57.5,56.4,29.65,SSW,200,4.0,10.0,96,0.00,,,0.13,WeatherCatV1.01B143,2013-01-29 13:52:00,
2013-01-29 07:57:00,57.5,56.4,29.65,SW,226,9.0,10.0,96,0.00,,,0.13,WeatherCatV1.01B143,2013-01-29 13:57:00,
2013-01-29 08:02:00,57.5,56.4,29.65,SSW,208,3.0,12.0,96,0.00,,,0.13,WeatherCatV1.01B143,2013-01-29 14:02:00,
2013-01-29 08:07:00,57.4,56.3,29.65,South,173,6.0,9.0,96,0.00,,,0.13,WeatherCatV1.01B143,2013-01-29 14:07:00,
2013-01-29 08:12:00,57.4,56.3,29.65,WSW,247,2.0,6.0,96,0.00,,,0.13,WeatherCatV1.01B143,2013-01-29 14:12:00,
2013-01-29 08:17:00,57.4,56.3,29.65,SW,235,13.0,13.0,96,0.00,,,0.13,WeatherCatV1.01B143,2013-01-29 14:17:00,
2013-01-29 08:22:00,57.3,56.2,29.65,SSW,201,4.0,6.0,96,0.00,,,0.13,WeatherCatV1.01B143,2013-01-29 14:22:00,
2013-01-29 08:27:00,57.3,56.2,29.64,SSW,212,1.0,8.0,96,0.00,,,0.13,WeatherCatV1.01B143,2013-01-29 14:27:00,
2013-01-29 08:32:00,57.3,56.2,29.65,South,191,5.0,9.0,96,0.00,,,0.13,WeatherCatV1.01B143,2013-01-29 14:32:00,
2013-01-29 08:37:00,57.4,56.3,29.64,SW,219,6.0,10.0,96,0.00,,,0.13,WeatherCatV1.01B143,2013-01-29 14:37:00,
2013-01-29 08:42:00,57.4,56.3,29.64,SSW,200,5.0,10.0,96,0.00,,,0.13,WeatherCatV1.01B143,2013-01-29 14:42:00,
2013-01-29 08:47:00,57.5,56.1,29.64,SSW,208,4.0,8.0,95,0.00,,,0.13,WeatherCatV1.01B143,2013-01-29 14:47:00,
2013-01-29 08:52:00,57.4,56.0,29.64,South,170,3.0,7.0,95,0.00,,,0.13,WeatherCatV1.01B143,2013-01-29 14:52:00,
2013-01-29 08:57:00,57.4,56.0,29.64,SSW,210,3.0,11.0,95,0.00,,,0.13,WeatherCatV1.01B143,2013-01-29 14:57:00,
2013-01-29 09:02:00,57.4,56.0,29.65,SSW,212,10.0,13.0,95,0.00,,,0.13,WeatherCatV1.01B143,2013-01-29 15:02:00,
2013-01-29 09:07:00,57.4,56.0,29.65,SW,214,7.0,9.0,95,0.00,,,0.13,WeatherCatV1.01B143,2013-01-29 15:07:00,
2013-01-29 09:12:00,57.4,56.0,29.64,SSW,205,8.0,13.0,95,0.00,,,0.13,WeatherCatV1.01B143,2013-01-29 15:12:00,
2013-01-29 09:17:00,57.6,56.2,29.64,SSW,193,3.0,8.0,95,0.00,,,0.13,WeatherCatV1.01B143,2013-01-29 15:17:00,
2013-01-29 09:22:00,57.6,56.2,29.64,SW,214,9.0,17.0,95,0.00,,,0.13,WeatherCatV1.01B143,2013-01-29 15:22:00,
2013-01-29 09:27:00,57.7,56.3,29.64,SW,221,5.0,17.0,95,0.00,,,0.13,WeatherCatV1.01B143,2013-01-29 15:27:00,
2013-01-29 09:32:00,57.8,56.4,29.64,SSW,194,8.0,15.0,95,0.00,,,0.13,WeatherCatV1.01B143,2013-01-29 15:32:00,
2013-01-29 09:37:00,58.0,56.6,29.64,SSW,201,6.0,13.0,95,0.00,,,0.13,WeatherCatV1.01B143,2013-01-29 15:37:00,
2013-01-29 09:42:00,58.1,56.4,29.64,SSW,211,9.0,14.0,94,0.00,,,0.13,WeatherCatV1.01B143,2013-01-29 15:42:00,
2013-01-29 09:47:00,58.2,56.5,29.64,SW,221,8.0,14.0,94,0.00,,,0.13,WeatherCatV1.01B143,2013-01-29 15:47:00,
2013-01-29 09:52:00,58.2,56.5,29.64,SSW,201,6.0,11.0,94,0.00,,,0.13,WeatherCatV1.01B143,2013-01-29 15:52:00,
2013-01-29 09:57:00,58.1,56.4,29.64,SSW,207,5.0,14.0,94,0.00,,,0.13,WeatherCatV1.01B143,2013-01-29 15:57:00,
2013-01-29 10:02:00,58.1,56.4,29.63,SSW,203,5.0,7.0,94,0.00,,,0.13,WeatherCatV1.01B143,2013-01-29 16:02:00,
2013-01-29 10:07:00,58.1,56.7,29.63,South,183,6.0,13.0,95,0.00,,,0.13,WeatherCatV1.01B143,2013-01-29 16:07:00,
2013-01-29 10:12:00,58.2,56.8,29.63,SSW,211,3.0,11.0,95,0.00,,,0.13,WeatherCatV1.01B143,2013-01-29 16:12:00,
2013-01-29 10:17:00,58.1,56.7,29.62,SSW,198,2.0,9.0,95,0.00,,,0.13,WeatherCatV1.01B143,2013-01-29 16:17:00,
2013-01-29 10:22:00,58.2,56.8,29.63,SSW,196,9.0,13.0,95,0.00,,,0.13,WeatherCatV1.01B143,2013-01-29 16:22:00,
2013-01-29 10:27:00,58.3,56.9,29.62,SSE,163,5.0,7.0,95,0.00,,,0.13,WeatherCatV1.01B143,2013-01-29 16:27:00,
2013-01-29 10:32:00,58.4,56.7,29.62,South,177,14.0,14.0,94,0.00,,,0.13,WeatherCatV1.01B143,2013-01-29 16:32:00,
2013-01-29 10:37:00,58.6,57.2,29.62,South,176,4.0,10.0,95,0.00,,,0.13,WeatherCatV1.01B143,2013-01-29 16:37:00,
2013-01-29 10:42:00,58.9,57.2,29.62,SSW,209,8.0,11.0,94,0.00,,,0.13,WeatherCatV1.01B143,2013-01-29 16:42:00,
2013-01-29 10:47:00,59.1,57.4,29.62,SSE,160,5.0,13.0,94,0.00,,,0.13,WeatherCatV1.01B143,2013-01-29 16:47:00,
2013-01-29 10:52:00,59.3,57.6,29.62,SSW,205,4.0,13.0,94,0.00,,,0.13,WeatherCatV1.01B143,2013-01-29 16:52:00,
2013-01-29 10:57:00,59.4,57.7,29.62,SSW,196,7.0,9.0,94,0.00,,,0.13,WeatherCatV1.01B143,2013-01-29 16:57:00,
2013-01-29 11:02:00,59.5,57.8,29.62,SSW,204,10.0,16.0,94,0.00,,,0.13,WeatherCatV1.01B143,2013-01-29 17:02:00,
2013-01-29 11:07:00,59.6,57.6,29.62,South,177,8.0,18.0,93,0.00,,,0.13,WeatherCatV1.01B143,2013-01-29 17:07:00,
2013-01-29 11:12:00,59.6,57.6,29.62,SSW,198,7.0,14.0,93,0.00,,,0.13,WeatherCatV1.01B143,2013-01-29 17:12:00,
2013-01-29 11:17:00,59.6,57.6,29.62,SSW,201,6.0,12.0,93,0.00,,,0.13,WeatherCatV1.01B143,2013-01-29 17:17:00,
2013-01-29 11:22:00,59.7,58.0,29.62,SSW,200,9.0,17.0,94,0.00,,,0.13,WeatherCatV1.01B143,2013-01-29 17:22:00,
2013-01-29 11:27:00,59.8,57.8,29.61,SSW,198,8.0,15.0,93,0.00,,,0.13,WeatherCatV1.01B143,2013-01-29 17:27:00,
2013-01-29 11:32:00,59.9,58.2,29.61,South,176,6.0,14.0,94,0.00,,,0.13,WeatherCatV1.01B143,2013-01-29 17:32:00,
2013-01-29 11:37:00,60.0,58.0,29.61,SSW,198,6.0,11.0,93,0.00,,,0.13,WeatherCatV1.01B143,2013-01-29 17:37:00,
2013-01-29 11:42:00,60.1,58.1,29.61,SW,232,5.0,14.0,93,0.00,,,0.13,WeatherCatV1.01B143,2013-01-29 17:42:00,
2013-01-29 11:47:00,60.2,58.2,29.59,South,188,2.0,15.0,93,0.00,,,0.13,WeatherCatV1.01B143,2013-01-29 17:47:00,
2013-01-29 11:52:00,60.2,58.2,29.59,SW,214,4.0,8.0,93,0.00,,,0.13,WeatherCatV1.01B143,2013-01-29 17:52:00,
2013-01-29 11:57:00,60.2,58.2,29.59,SSW,212,4.0,10.0,93,0.00,,,0.13,WeatherCatV1.01B143,2013-01-29 17:57:00,
2013-01-29 12:03:00,60.5,58.5,29.59,SSW,197,4.0,10.0,93,0.00,,,0.13,WeatherCatV1.01B143,2013-01-29 18:03:00,
2013-01-29 12:08:00,60.7,58.7,29.59,South,190,10.0,13.0,93,0.00,,,0.13,WeatherCatV1.01B143,2013-01-29 18:08:00,
2013-01-29 12:13:00,60.7,58.7,29.58,SSW,193,8.0,13.0,93,0.00,,,0.13,WeatherCatV1.01B143,2013-01-29 18:13:00,
2013-01-29 12:18:00,60.8,58.8,29.59,SSW,200,12.0,13.0,93,0.00,,,0.13,WeatherCatV1.01B143,2013-01-29 18:18:00,
2013-01-29 12:23:00,60.9,58.6,29.58,SW,219,4.0,12.0,92,0.00,,,0.13,WeatherCatV1.01B143,2013-01-29 18:23:00,
2013-01-29 12:28:00,60.9,58.6,29.57,SSW,203,3.0,10.0,92,0.00,,,0.13,WeatherCatV1.01B143,2013-01-29 18:28:00,
2013-01-29 12:33:00,60.9,58.6,29.57,South,183,6.0,13.0,92,0.00,,,0.13,WeatherCatV1.01B143,2013-01-29 18:33:00,
2013-01-29 12:38:00,61.0,58.7,29.57,South,184,4.0,16.0,92,0.00,,,0.13,WeatherCatV1.01B143,2013-01-29 18:38:00,
2013-01-29 12:43:00,61.0,58.7,29.57,SSW,203,4.0,13.0,92,0.00,,,0.13,WeatherCatV1.01B143,2013-01-29 18:43:00,
2013-01-29 12:48:00,61.1,58.8,29.57,SSW,207,8.0,10.0,92,0.00,,,0.13,WeatherCatV1.01B143,2013-01-29 18:48:00,
2013-01-29 12:53:00,61.2,58.9,29.56,SSW,198,6.0,11.0,92,0.00,,,0.13,WeatherCatV1.01B143,2013-01-29 18:53:00,
2013-01-29 12:58:00,61.4,59.1,29.56,South,177,5.0,14.0,92,0.00,,,0.13,WeatherCatV1.01B143,2013-01-29 18:58:00,
2013-01-29 13:03:00,61.5,59.2,29.56,SSW,193,5.0,11.0,92,0.00,,,0.13,WeatherCatV1.01B143,2013-01-29 19:03:00,
2013-01-29 13:08:00,61.5,58.8,29.55,SSE,163,5.0,12.0,91,0.00,,,0.13,WeatherCatV1.01B143,2013-01-29 19:08:00,
2013-01-29 13:13:00,61.4,58.7,29.55,SSW,207,7.0,10.0,91,0.00,,,0.13,WeatherCatV1.01B143,2013-01-29 19:13:00,
2013-01-29 13:18:00,61.4,58.7,29.55,SSW,192,4.0,10.0,91,0.00,,,0.13,WeatherCatV1.01B143,2013-01-29 19:18:00,
2013-01-29 13:23:00,61.4,58.7,29.54,SSW,200,6.0,8.0,91,0.00,,,0.13,WeatherCatV1.01B143,2013-01-29 19:23:00,
2013-01-29 13:28:00,61.4,58.7,29.54,South,183,4.0,8.0,91,0.00,,,0.13,WeatherCatV1.01B143,2013-01-29 19:28:00,
2013-01-29 13:33:00,61.4,59.1,29.54,SSE,155,7.0,8.0,92,0.00,,,0.13,WeatherCatV1.01B143,2013-01-29 19:33:00,
2013-01-29 13:38:00,61.4,59.1,29.53,South,179,7.0,8.0,92,0.00,,,0.13,WeatherCatV1.01B143,2013-01-29 19:38:00,
2013-01-29 13:43:00,61.3,58.6,29.53,SSW,196,9.0,10.0,91,0.00,,,0.13,WeatherCatV1.01B143,2013-01-29 19:43:00,
2013-01-29 13:48:00,61.1,58.8,29.52,SSW,210,5.0,8.0,92,0.00,,,0.13,WeatherCatV1.01B143,2013-01-29 19:48:00,
2013-01-29 13:53:00,61.0,58.7,29.52,South,191,5.0,6.0,92,0.00,,,0.13,WeatherCatV1.01B143,2013-01-29 19:53:00,
2013-01-29 13:58:00,60.9,58.6,29.52,SSW,210,4.0,7.0,92,0.00,,,0.13,WeatherCatV1.01B143,2013-01-29 19:58:00,
2013-01-29 14:04:00,60.8,58.5,29.52,South,190,1.0,7.0,92,0.00,,,0.13,WeatherCatV1.01B143,2013-01-29 20:04:00,
2013-01-29 14:09:00,60.6,58.3,29.52,SSW,207,2.0,5.0,92,0.00,,,0.13,WeatherCatV1.01B143,2013-01-29 20:09:00,
2013-01-29 14:14:00,60.5,58.5,29.51,SW,218,4.0,8.0,93,0.00,,,0.13,WeatherCatV1.01B143,2013-01-29 20:14:00,
2013-01-29 14:19:00,60.3,58.3,29.52,SSW,203,3.0,9.0,93,0.00,,,0.13,WeatherCatV1.01B143,2013-01-29 20:19:00,
2013-01-29 14:24:00,60.2,58.2,29.52,SSE,166,6.0,9.0,93,0.00,,,0.13,WeatherCatV1.01B143,2013-01-29 20:24:00,
2013-01-29 14:29:00,59.9,58.2,29.53,SSW,201,3.0,8.0,94,0.62,,,0.17,WeatherCatV1.01B143,2013-01-29 20:29:00,
2013-01-29 14:34:00,59.6,58.2,29.53,SSW,198,5.0,7.0,95,0.55,,,0.23,WeatherCatV1.01B143,2013-01-29 20:34:00,
2013-01-29 14:39:00,59.6,58.5,29.52,South,185,3.0,7.0,96,0.41,,,0.26,WeatherCatV1.01B143,2013-01-29 20:39:00,
2013-01-29 14:44:00,59.6,58.5,29.50,SSW,193,2.0,5.0,96,0.14,,,0.28,WeatherCatV1.01B143,2013-01-29 20:44:00,
2013-01-29 14:49:00,59.7,58.6,29.51,SSW,193,2.0,3.0,96,0.20,,,0.29,WeatherCatV1.01B143,2013-01-29 20:49:00,
2013-01-29 14:54:00,59.7,58.6,29.51,South,190,2.0,6.0,96,0.08,,,0.29,WeatherCatV1.01B143,2013-01-29 20:54:00,
2013-01-29 14:59:00,59.6,58.5,29.51,SSW,210,2.0,3.0,96,0.05,,,0.29,WeatherCatV1.01B143,2013-01-29 20:59:00,
2013-01-29 15:04:00,59.5,58.4,29.51,South,169,1.0,4.0,96,0.00,,,0.29,WeatherCatV1.01B143,2013-01-29 21:04:00,
2013-01-29 15:09:00,59.3,58.2,29.50,SSW,201,3.0,4.0,96,0.00,,,0.29,WeatherCatV1.01B143,2013-01-29 21:09:00,
2013-01-29 15:14:00,59.2,58.1,29.51,SW,215,3.0,5.0,96,0.00,,,0.29,WeatherCatV1.01B143,2013-01-29 21:14:00,
2013-01-29 15:19:00,59.0,57.9,29.51,South,170,4.0,7.0,96,0.00,,,0.29,WeatherCatV1.01B143,2013-01-29 21:19:00,
2013-01-29 15:24:00,58.9,58.0,29.52,SW,218,3.0,11.0,97,1.62,,,0.31,WeatherCatV1.01B143,2013-01-29 21:24:00,
2013-01-29 15:29:00,58.9,57.8,29.52,SSE,153,4.0,8.0,96,0.29,,,0.38,WeatherCatV1.01B143,2013-01-29 21:29:00,
2013-01-29 15:34:00,58.9,58.0,29.51,South,186,2.0,9.0,97,0.38,,,0.41,WeatherCatV1.01B143,2013-01-29 21:34:00,
2013-01-29 15:39:00,58.8,57.9,29.52,SSW,198,6.0,7.0,97,0.70,,,0.44,WeatherCatV1.01B143,2013-01-29 21:39:00,
2013-01-29 15:44:00,58.3,56.6,29.52,SW,226,7.0,10.0,94,0.20,,,0.48,WeatherCatV1.01B143,2013-01-29 21:44:00,
2013-01-29 15:49:00,57.4,55.7,29.53,SSW,198,2.0,6.0,94,0.09,,,0.49,WeatherCatV1.01B143,2013-01-29 21:49:00,
2013-01-29 15:54:00,56.8,55.1,29.52,WSW,249,1.0,3.0,94,0.09,,,0.49,WeatherCatV1.01B143,2013-01-29 21:54:00,
2013-01-29 15:59:00,56.3,54.9,29.52,West,270,5.0,7.0,95,0.05,,,0.49,WeatherCatV1.01B143,2013-01-29 21:59:00,
2013-01-29 16:04:00,56.0,54.6,29.52,SW,231,1.0,3.0,95,0.05,,,0.50,WeatherCatV1.01B143,2013-01-29 22:04:00,
2013-01-29 16:09:00,55.8,54.4,29.51,NNW,333,2.0,4.0,95,0.05,,,0.50,WeatherCatV1.01B143,2013-01-29 22:09:00,
2013-01-29 16:14:00,55.5,54.1,29.49,WNW,290,0.0,2.0,95,0.05,,,0.51,WeatherCatV1.01B143,2013-01-29 22:14:00,
2013-01-29 16:19:00,55.3,54.2,29.50,WNW,293,2.0,3.0,96,0.10,,,0.52,WeatherCatV1.01B143,2013-01-29 22:19:00,
2013-01-29 16:24:00,55.1,54.0,29.52,SW,221,2.0,2.0,96,0.13,,,0.53,WeatherCatV1.01B143,2013-01-29 22:24:00,
2013-01-29 16:29:00,54.9,53.8,29.53,SW,229,0.0,5.0,96,1.37,,,0.56,WeatherCatV1.01B143,2013-01-29 22:29:00,
2013-01-29 16:34:00,54.8,53.7,29.51,NW,309,1.0,4.0,96,0.41,,,0.62,WeatherCatV1.01B143,2013-01-29 22:34:00,
2013-01-29 16:39:00,54.6,53.5,29.51,NNW,339,0.0,3.0,96,0.09,,,0.62,WeatherCatV1.01B143,2013-01-29 22:39:00,
2013-01-29 16:44:00,54.5,53.4,29.51,SSW,212,0.0,1.0,96,0.07,,,0.63,WeatherCatV1.01B143,2013-01-29 22:44:00,
2013-01-29 16:49:00,54.3,53.2,29.49,North,356,0.0,2.0,96,0.13,,,0.64,WeatherCatV1.01B143,2013-01-29 22:49:00,
2013-01-29 16:54:00,54.2,53.1,29.50,NW,304,0.0,0.0,96,0.14,,,0.65,WeatherCatV1.01B143,2013-01-29 22:54:00,
2013-01-29 16:59:00,54.1,53.3,29.50,SSW,212,0.0,0.0,97,0.30,,,0.67,WeatherCatV1.01B143,2013-01-29 22:59:00,
2013-01-29 17:04:00,54.1,53.3,29.48,ESE,117,0.0,0.0,97,0.23,,,0.69,WeatherCatV1.01B143,2013-01-29 23:04:00,
2013-01-29 17:09:00,54.0,53.2,29.47,ESE,117,0.0,0.0,97,0.08,,,0.69,WeatherCatV1.01B143,2013-01-29 23:09:00,
2013-01-29 17:14:00,53.8,53.0,29.47,ESE,117,0.0,0.0,97,0.06,,,0.70,WeatherCatV1.01B143,2013-01-29 23:14:00,
2013-01-29 17:19:00,53.7,52.9,29.47,ESE,117,0.0,0.0,97,0.06,,,0.70,WeatherCatV1.01B143,2013-01-29 23:19:00,
2013-01-29 17:24:00,53.7,52.9,29.48,SSE,162,0.0,0.0,97,0.05,,,0.70,WeatherCatV1.01B143,2013-01-29 23:24:00,
2013-01-29 17:29:00,53.5,52.4,29.49,SSE,166,0.0,0.0,96,0.25,,,0.72,WeatherCatV1.01B143,2013-01-29 23:29:00,
2013-01-29 17:34:00,53.2,52.4,29.50,SW,218,0.0,2.0,97,0.26,,,0.74,WeatherCatV1.01B143,2013-01-29 23:34:00,
2013-01-29 17:39:00,53.1,52.3,29.49,SSW,193,0.0,0.0,97,0.21,,,0.76,WeatherCatV1.01B143,2013-01-29 23:39:00,
2013-01-29 17:44:00,53.1,52.3,29.50,SSW,193,0.0,0.0,97,0.14,,,0.77,WeatherCatV1.01B143,2013-01-29 23:44:00,
2013-01-29 17:49:00,53.0,52.2,29.50,SSW,193,0.0,0.0,97,0.11,,,0.78,WeatherCatV1.01B143,2013-01-29 23:49:00,
2013-01-29 17:54:00,53.0,52.2,29.50,SSW,193,0.0,0.0,97,0.11,,,0.78,WeatherCatV1.01B143,2013-01-29 23:54:00,
2013-01-29 17:59:00,52.9,52.1,29.49,SSW,193,0.0,0.0,97,0.07,,,0.79,WeatherCatV1.01B143,2013-01-29 23:59:00,
2013-01-29 18:04:00,52.8,52.0,29.48,SE,145,0.0,1.0,97,0.07,,,0.79,WeatherCatV1.01B143,2013-01-30 00:04:00,
2013-01-29 18:09:00,52.6,51.8,29.48,SE,146,0.0,0.0,97,0.06,,,0.80,WeatherCatV1.01B143,2013-01-30 00:09:00,
2013-01-29 18:14:00,52.5,51.7,29.49,SE,145,0.0,0.0,97,0.06,,,0.80,WeatherCatV1.01B143,2013-01-30 00:14:00,
2013-01-29 18:19:00,52.4,51.6,29.49,SE,145,0.0,0.0,97,0.06,,,0.80,WeatherCatV1.01B143,2013-01-30 00:19:00,
2013-01-29 18:24:00,52.2,51.4,29.50,South,169,1.0,1.0,97,0.04,,,0.80,WeatherCatV1.01B143,2013-01-30 00:24:00,
2013-01-29 18:29:00,52.2,51.4,29.50,South,186,2.0,2.0,97,0.04,,,0.81,WeatherCatV1.01B143,2013-01-30 00:29:00,
2013-01-29 18:34:00,52.2,51.7,29.50,South,188,1.0,2.0,98,0.07,,,0.82,WeatherCatV1.01B143,2013-01-30 00:34:00,
2013-01-29 18:39:00,52.1,51.6,29.50,South,187,0.0,1.0,98,0.07,,,0.82,WeatherCatV1.01B143,2013-01-30 00:39:00,
2013-01-29 18:44:00,52.1,51.6,29.50,SSW,193,0.0,2.0,98,0.10,,,0.83,WeatherCatV1.01B143,2013-01-30 00:44:00,
2013-01-29 18:49:00,52.0,51.5,29.50,South,190,0.0,1.0,98,0.11,,,0.84,WeatherCatV1.01B143,2013-01-30 00:49:00,
2013-01-29 18:54:00,51.9,51.4,29.49,South,190,0.0,0.0,98,0.13,,,0.85,WeatherCatV1.01B143,2013-01-30 00:54:00,
2013-01-29 18:59:00,51.8,51.3,29.49,South,190,0.0,0.0,98,0.14,,,0.86,WeatherCatV1.01B143,2013-01-30 00:59:00,
2013-01-29 19:04:00,51.9,51.4,29.49,South,190,0.0,0.0,98,0.16,,,0.88,WeatherCatV1.01B143,2013-01-30 01:04:00,
2013-01-29 19:09:00,51.9,51.4,29.49,South,190,0.0,0.0,98,0.13,,,0.89,WeatherCatV1.01B143,2013-01-30 01:09:00,
2013-01-29 19:14:00,51.7,51.2,29.49,South,190,0.0,0.0,98,0.11,,,0.90,WeatherCatV1.01B143,2013-01-30 01:14:00,
2013-01-29 19:19:00,51.5,51.0,29.48,South,190,0.0,0.0,98,0.12,,,0.91,WeatherCatV1.01B143,2013-01-30 01:19:00,
2013-01-29 19:24:00,51.6,51.1,29.48,South,190,0.0,0.0,98,0.10,,,0.92,WeatherCatV1.01B143,2013-01-30 01:24:00,
2013-01-29 19:29:00,51.6,51.1,29.47,South,190,0.0,0.0,98,0.10,,,0.92,WeatherCatV1.01B143,2013-01-30 01:29:00,
2013-01-29 19:34:00,51.5,51.0,29.48,South,190,0.0,0.0,98,0.10,,,0.93,WeatherCatV1.01B143,2013-01-30 01:34:00,
2013-01-29 19:39:00,51.1,50.3,29.48,South,190,0.0,0.0,97,0.09,,,0.94,WeatherCatV1.01B143,2013-01-30 01:39:00,
2013-01-29 19:44:00,50.9,50.4,29.48,South,190,0.0,0.0,98,0.09,,,0.95,WeatherCatV1.01B143,2013-01-30 01:44:00,
2013-01-29 19:49:00,51.2,50.7,29.48,South,190,0.0,0.0,98,0.12,,,0.96,WeatherCatV1.01B143,2013-01-30 01:49:00,
2013-01-29 19:54:00,51.3,50.8,29.48,South,190,0.0,0.0,98,0.14,,,0.97,WeatherCatV1.01B143,2013-01-30 01:54:00,
2013-01-29 19:59:00,51.2,50.7,29.48,SSW,204,0.0,0.0,98,0.13,,,0.98,WeatherCatV1.01B143,2013-01-30 01:59:00,
2013-01-29 20:04:00,51.3,50.8,29.48,South,172,1.0,1.0,98,0.13,,,0.99,WeatherCatV1.01B143,2013-01-30 02:04:00,
2013-01-29 20:09:00,51.3,50.8,29.48,SSE,165,1.0,2.0,98,0.12,,,1.00,WeatherCatV1.01B143,2013-01-30 02:09:00,
2013-01-29 20:14:00,51.3,50.8,29.48,SSE,168,0.0,2.0,98,0.13,,,1.01,WeatherCatV1.01B143,2013-01-30 02:14:00,
2013-01-29 20:19:00,51.2,50.7,29.48,SSE,167,0.0,0.0,98,0.12,,,1.02,WeatherCatV1.01B143,2013-01-30 02:19:00,
2013-01-29 20:24:00,51.0,50.5,29.47,SSE,168,0.0,0.0,98,0.11,,,1.03,WeatherCatV1.01B143,2013-01-30 02:24:00,
2013-01-29 20:29:00,51.0,50.5,29.47,SSE,168,0.0,0.0,98,0.16,,,1.04,WeatherCatV1.01B143,2013-01-30 02:29:00,
2013-01-29 20:34:00,50.9,50.4,29.47,SSE,168,0.0,0.0,98,0.17,,,1.06,WeatherCatV1.01B143,2013-01-30 02:34:00,
2013-01-29 20:39:00,50.9,50.4,29.46,SSE,167,0.0,0.0,98,0.14,,,1.07,WeatherCatV1.01B143,2013-01-30 02:39:00,
2013-01-29 20:44:00,50.6,50.1,29.46,SSE,167,0.0,0.0,98,0.14,,,1.08,WeatherCatV1.01B143,2013-01-30 02:44:00,
2013-01-29 20:49:00,50.3,49.5,29.46,SSE,168,0.0,0.0,97,0.11,,,1.09,WeatherCatV1.01B143,2013-01-30 02:49:00,
2013-01-29 20:54:00,50.2,49.7,29.46,SSE,167,0.0,0.0,98,0.14,,,1.10,WeatherCatV1.01B143,2013-01-30 02:54:00,
2013-01-29 20:59:00,50.4,49.9,29.46,SSE,168,0.0,0.0,98,0.14,,,1.11,WeatherCatV1.01B143,2013-01-30 02:59:00,
2013-01-29 21:04:00,50.6,50.3,29.46,SSE,168,0.0,1.0,99,0.13,,,1.12,WeatherCatV1.01B143,2013-01-30 03:04:00,
2013-01-29 21:09:00,50.8,50.5,29.47,South,183,1.0,2.0,99,0.15,,,1.14,WeatherCatV1.01B143,2013-01-30 03:09:00,
2013-01-29 21:14:00,50.8,50.5,29.46,South,190,0.0,0.0,99,0.12,,,1.15,WeatherCatV1.01B143,2013-01-30 03:14:00,
2013-01-29 21:19:00,50.8,50.3,29.45,South,190,0.0,0.0,98,0.13,,,1.16,WeatherCatV1.01B143,2013-01-30 03:19:00,
2013-01-29 21:24:00,50.8,50.3,29.44,South,190,0.0,0.0,98,0.16,,,1.17,WeatherCatV1.01B143,2013-01-30 03:24:00,
2013-01-29 21:29:00,50.9,50.4,29.44,South,190,0.0,0.0,98,0.16,,,1.18,WeatherCatV1.01B143,2013-01-30 03:29:00,
2013-01-29 21:34:00,50.8,50.3,29.43,South,190,0.0,0.0,98,0.11,,,1.19,WeatherCatV1.01B143,2013-01-30 03:34:00,
2013-01-29 21:39:00,50.7,50.2,29.43,South,190,0.0,0.0,98,0.08,,,1.20,WeatherCatV1.01B143,2013-01-30 03:39:00,
2013-01-29 21:44:00,50.6,50.1,29.43,South,190,0.0,0.0,98,0.08,,,1.20,WeatherCatV1.01B143,2013-01-30 03:44:00,
2013-01-29 21:49:00,50.5,50.0,29.43,South,190,0.0,0.0,98,0.08,,,1.21,WeatherCatV1.01B143,2013-01-30 03:49:00,
2013-01-29 21:54:00,50.4,49.9,29.43,South,190,0.0,0.0,98,0.09,,,1.22,WeatherCatV1.01B143,2013-01-30 03:54:00,
2013-01-29 21:59:00,50.4,49.9,29.43,South,190,0.0,0.0,98,0.11,,,1.23,WeatherCatV1.01B143,2013-01-30 03:59:00,
2013-01-29 22:04:00,50.4,49.9,29.43,South,190,0.0,0.0,98,0.12,,,1.24,WeatherCatV1.01B143,2013-01-30 04:04:00,
2013-01-29 22:09:00,50.4,49.9,29.43,South,190,0.0,0.0,98,0.10,,,1.24,WeatherCatV1.01B143,2013-01-30 04:09:00,
2013-01-29 22:14:00,50.4,49.9,29.43,South,190,0.0,0.0,98,0.08,,,1.25,WeatherCatV1.01B143,2013-01-30 04:14:00,
2013-01-29 22:19:00,50.3,49.8,29.43,South,190,0.0,0.0,98,0.10,,,1.26,WeatherCatV1.01B143,2013-01-30 04:19:00,
2013-01-29 22:24:00,49.9,49.4,29.43,South,190,0.0,0.0,98,0.08,,,1.26,WeatherCatV1.01B143,2013-01-30 04:24:00,
2013-01-29 22:29:00,49.6,49.1,29.44,North,354,1.0,2.0,98,0.06,,,1.27,WeatherCatV1.01B143,2013-01-30 04:29:00,
2013-01-29 22:34:00,49.0,48.2,29.44,North,354,1.0,4.0,97,0.06,,,1.27,WeatherCatV1.01B143,2013-01-30 04:34:00,
2013-01-29 22:39:00,48.5,47.7,29.44,NE,49,2.0,4.0,97,0.06,,,1.28,WeatherCatV1.01B143,2013-01-30 04:39:00,
2013-01-29 22:44:00,48.0,47.2,29.45,ENE,70,1.0,4.0,97,0.09,,,1.29,WeatherCatV1.01B143,2013-01-30 04:44:00,
2013-01-29 22:49:00,47.4,46.6,29.45,NNE,24,2.0,3.0,97,0.11,,,1.30,WeatherCatV1.01B143,2013-01-30 04:49:00,
2013-01-29 22:54:00,47.1,46.3,29.45,NNE,20,1.0,2.0,97,0.10,,,1.30,WeatherCatV1.01B143,2013-01-30 04:54:00,
2013-01-29 22:59:00,46.9,46.4,29.45,NNE,16,3.0,5.0,98,0.08,,,1.31,WeatherCatV1.01B143,2013-01-30 04:59:00,
2013-01-29 23:01:00,46.8,46.3,29.45,NNW,345,2.0,4.0,98,0.08,,,1.31,WeatherCatV1.01B143,2013-01-30 05:01:00,
2013-01-29 23:02:00,46.8,46.3,29.45,East,87,4.0,4.0,98,0.08,,,1.31,WeatherCatV1.01B143,2013-01-30 05:02:00,
2013-01-29 23:05:00,46.7,46.2,29.44,NE,51,4.0,4.0,98,0.09,,,1.32,WeatherCatV1.01B143,2013-01-30 05:05:00,
2013-01-29 23:10:00,46.5,46.0,29.44,NE,36,0.0,2.0,98,0.08,,,1.32,WeatherCatV1.01B143,2013-01-30 05:10:00,
2013-01-29 23:15:00,46.3,45.8,29.43,NE,55,2.0,2.0,98,0.06,,,1.33,WeatherCatV1.01B143,2013-01-30 05:15:00,
2013-01-29 23:20:00,46.2,45.7,29.42,ENE,70,0.0,1.0,98,0.06,,,1.33,WeatherCatV1.01B143,2013-01-30 05:20:00,
2013-01-29 23:23:00,46.1,45.6,29.42,NE,39,0.0,2.0,98,0.05,,,1.33,WeatherCatV1.01B143,2013-01-30 05:23:00,
2013-01-29 23:28:00,46.1,45.6,29.42,NE,47,1.0,2.0,98,0.05,,,1.34,WeatherCatV1.01B143,2013-01-30 05:28:00,
2013-01-29 23:33:00,46.0,45.5,29.42,NNE,30,2.0,2.0,98,0.05,,,1.34,WeatherCatV1.01B143,2013-01-30 05:33:00,
2013-01-29 23:38:00,45.7,45.2,29.42,NNW,336,3.0,4.0,98,0.05,,,1.34,WeatherCatV1.01B143,2013-01-30 05:38:00,
2013-01-29 23:43:00,45.5,45.0,29.41,North,4,1.0,4.0,98,0.00,,,1.34,WeatherCatV1.01B143,2013-01-30 05:43:00,
2013-01-29 23:48:00,45.3,44.8,29.40,North,350,3.0,5.0,98,0.00,,,1.34,WeatherCatV1.01B143,2013-01-30 05:48:00,
2013-01-29 23:53:00,45.0,44.2,29.41,NNE,20,2.0,6.0,97,0.00,,,1.35,WeatherCatV1.01B143,2013-01-30 05:53:00,
2013-01-29 23:58:00,44.6,43.8,29.41,North,349,2.0,5.0,97,0.00,,,1.35,WeatherCatV1.01B143,2013-01-30 05:58:00,